Terminal Aerodrome Forecast
Issued by NWS

Home | Current Version | Previous Version | Text Only | Print | Product List | Glossary On
Versions: 1 2 3 4 5 6 7 8 9 10 11 12 13 14 15 16 17 18 19 20
000
FTUS41 KPHI 241127
TAFMIV
TAF
KMIV 241127Z 2412/2512 00000KT P6SM SKC
     FM241400 22006KT P6SM SKC
     FM241600 23008G18KT P6SM FEW050 FEW250
     FM242200 21006KT P6SM FEW250
     FM250200 VRB02KT P6SM BKN250=

USA.gov is the U.S. government's official web portal to all federal, state and local government web resources and services.